Time;durP1;ratioP1;P1;durP2;ratioP2;P2;SDS_P1;SDS_P2;PMS_P1;PMS_P2;Temp;Humidity;BMP_temperature;BMP_pressure;BME280_temperature;BME280_humidity;BME280_pressure;Samples;Min_cycle;Max_cycle;Signal;HPM_P1;HPM_P2
2022/11/24 00:01:19;;;;;;;8.95;7.95;;;1.00;99.90;;;;;;5002900;28;20107;-64
2022/11/24 00:04:00;;;;;;;9.75;6.78;;;1.00;99.90;;;;;;5002760;28;21656;-64
2022/11/24 00:06:28;;;;;;;9.05;6.65;;;1.10;99.90;;;;;;5000928;28;20060;-64
2022/11/24 00:08:56;;;;;;;10.02;7.85;;;1.00;99.90;;;;;;5005994;28;20115;-63
2022/11/24 00:11:27;;;;;;;7.75;6.68;;;1.00;99.90;;;;;;5005386;28;20076;-63
2022/11/24 00:13:54;;;;;;;7.63;6.45;;;1.00;99.90;;;;;;5001757;28;20042;-64
2022/11/24 00:16:24;;;;;;;9.55;6.43;;;1.10;99.90;;;;;;5000483;28;20499;-64
2022/11/24 00:18:53;;;;;;;8.75;6.43;;;1.00;99.90;;;;;;5011143;28;20085;-66
2022/11/24 00:21:21;;;;;;;9.55;6.85;;;1.10;99.90;;;;;;5007843;28;20112;-66
2022/11/24 00:23:48;;;;;;;10.85;6.57;;;1.00;99.90;;;;;;5007161;28;20495;-68
2022/11/24 00:26:20;;;;;;;7.32;6.28;;;1.00;99.90;;;;;;5006379;28;20050;-64
2022/11/24 00:28:49;;;;;;;6.75;5.90;;;1.00;99.90;;;;;;5008656;28;20333;-67
2022/11/24 00:31:22;;;;;;;7.70;5.95;;;1.00;99.90;;;;;;5004201;28;20054;-65
2022/11/24 00:33:51;;;;;;;8.75;6.22;;;1.00;99.90;;;;;;5005038;28;20045;-64
2022/11/24 00:36:20;;;;;;;8.10;6.00;;;1.00;99.90;;;;;;5011627;28;20099;-64
2022/11/24 00:38:51;;;;;;;8.10;6.25;;;1.00;99.90;;;;;;5013865;28;20130;-64
2022/11/24 00:41:18;;;;;;;8.30;6.22;;;1.00;99.90;;;;;;5007888;28;20048;-63
2022/11/24 00:43:45;;;;;;;7.60;6.05;;;1.00;99.90;;;;;;5009874;28;20053;-68
2022/11/24 00:46:12;;;;;;;7.72;6.38;;;1.00;99.90;;;;;;5010830;28;20049;-65
2022/11/24 00:48:39;;;;;;;6.70;5.72;;;1.00;99.90;;;;;;5005672;28;20060;-64
2022/11/24 00:51:08;;;;;;;7.28;5.55;;;1.00;99.90;;;;;;5010342;28;20141;-65
2022/11/24 00:53:36;;;;;;;9.50;6.28;;;1.00;99.90;;;;;;5006398;28;20046;-63
2022/11/24 00:56:03;;;;;;;7.22;6.28;;;1.00;99.90;;;;;;5010914;28;20073;-66
2022/11/24 00:58:31;;;;;;;7.88;5.85;;;1.00;99.90;;;;;;5011017;28;20065;-65
2022/11/24 01:01:14;;;;;;;7.10;5.60;;;1.00;99.90;;;;;;5006527;28;20056;-64
2022/11/24 01:03:41;;;;;;;6.88;5.28;;;1.00;99.90;;;;;;5002135;28;20099;-63
2022/11/24 01:06:14;;;;;;;8.32;5.82;;;1.00;99.90;;;;;;5007549;28;20054;-64
2022/11/24 01:08:41;;;;;;;7.45;5.45;;;1.00;99.90;;;;;;5008518;28;20053;-65
2022/11/24 01:11:14;;;;;;;9.55;6.90;;;1.00;99.90;;;;;;5011825;28;20045;-63
2022/11/24 01:13:44;;;;;;;7.47;5.82;;;1.00;99.90;;;;;;5009328;28;20060;-63
2022/11/24 01:16:22;;;;;;;7.03;5.85;;;1.00;99.90;;;;;;5008413;28;20050;-68
2022/11/24 01:18:49;;;;;;;8.98;6.00;;;1.00;99.90;;;;;;5013478;28;20442;-69
2022/11/24 01:21:17;;;;;;;7.10;5.90;;;1.00;99.90;;;;;;5005618;28;20053;-66
2022/11/24 01:23:44;;;;;;;7.13;5.78;;;1.00;99.90;;;;;;5005584;28;20081;-64
2022/11/24 01:26:14;;;;;;;10.88;7.75;;;1.00;99.90;;;;;;5006707;28;20144;-66
2022/11/24 01:28:42;;;;;;;12.40;7.10;;;1.10;99.90;;;;;;5008419;28;20800;-67
2022/11/24 01:31:14;;;;;;;9.00;6.28;;;1.00;99.90;;;;;;5007259;28;20057;-65
2022/11/24 01:33:41;;;;;;;7.70;6.47;;;1.00;99.90;;;;;;5007135;28;20107;-67
2022/11/24 01:36:08;;;;;;;7.35;5.63;;;1.00;99.90;;;;;;5000872;28;20414;-63
2022/11/24 01:38:35;;;;;;;9.00;7.35;;;1.10;99.90;;;;;;5008416;28;20050;-64
2022/11/24 01:41:14;;;;;;;10.70;6.22;;;1.00;99.90;;;;;;5010445;28;20390;-64
2022/11/24 01:43:42;;;;;;;6.95;6.05;;;1.10;99.90;;;;;;5001928;28;20420;-67
2022/11/24 01:46:25;;;;;;;8.95;6.60;;;1.00;99.90;;;;;;5009365;28;20053;-65
2022/11/24 01:49:10;;;;;;;7.05;6.15;;;1.10;99.90;;;;;;5009083;28;20148;-63
2022/11/24 01:51:47;;;;;;;8.82;7.25;;;1.10;99.90;;;;;;4998106;28;20044;-64
2022/11/24 01:54:20;;;;;;;7.03;5.78;;;1.10;99.90;;;;;;5007381;28;20061;-63
2022/11/24 01:56:52;;;;;;;7.35;5.88;;;1.00;99.90;;;;;;5015113;28;20107;-64
2022/11/24 01:59:20;;;;;;;9.13;5.55;;;1.10;99.90;;;;;;5010669;28;20084;-63
2022/11/24 02:01:50;;;;;;;8.55;6.35;;;1.10;99.90;;;;;;5005508;28;20049;-64
2022/11/24 02:04:22;;;;;;;;;;;1.10;99.90;;;;;;5007374;28;20042;-63
2022/11/24 02:06:51;;;;;;;7.68;6.85;;;1.10;99.90;;;;;;5006526;28;20020;-66
2022/11/24 02:09:44;;;;;;;8.68;6.50;;;1.10;99.90;;;;;;5007801;28;20050;-63
2022/11/24 02:12:12;;;;;;;8.75;6.82;;;1.10;99.90;;;;;;5006532;28;20177;-65
2022/11/24 02:14:40;;;;;;;8.77;6.75;;;1.10;99.90;;;;;;5005682;28;20082;-65
2022/11/24 02:17:07;;;;;;;9.05;7.38;;;1.10;99.90;;;;;;5008641;28;20054;-65
2022/11/24 02:19:43;;;;;;;9.85;7.15;;;1.10;99.90;;;;;;5004286;28;20129;-63
2022/11/24 02:22:17;;;;;;;9.85;6.22;;;1.10;99.90;;;;;;5007138;28;20069;-64
2022/11/24 02:24:54;;;;;;;9.18;7.50;;;1.10;99.90;;;;;;5005553;28;20119;-66
2022/11/24 02:27:22;;;;;;;8.27;7.00;;;1.10;99.90;;;;;;5009331;28;20058;-63
2022/11/24 02:29:49;;;;;;;11.18;8.18;;;1.10;99.90;;;;;;5008329;28;20053;-63
2022/11/24 02:32:17;;;;;;;10.55;7.25;;;1.10;99.90;;;;;;5004007;28;20767;-66
2022/11/24 02:34:44;;;;;;;9.13;7.28;;;1.10;99.90;;;;;;5009003;28;20115;-66
2022/11/24 02:37:11;;;;;;;9.27;6.88;;;1.10;99.90;;;;;;5008819;28;20123;-63
2022/11/24 02:39:38;;;;;;;8.52;6.53;;;1.10;99.90;;;;;;5008190;28;20100;-67
2022/11/24 02:42:10;;;;;;;6.57;5.85;;;1.10;99.90;;;;;;5009339;28;20042;-64
2022/11/24 02:44:42;;;;;;;8.75;7.10;;;1.10;99.90;;;;;;5007161;28;20046;-64
2022/11/24 02:47:11;;;;;;;9.98;7.53;;;1.10;99.90;;;;;;5009955;28;20060;-63
2022/11/24 02:49:38;;;;;;;9.80;7.97;;;1.10;99.90;;;;;;5006147;28;20050;-67
2022/11/24 02:52:05;;;;;;;8.55;6.80;;;1.10;99.90;;;;;;5012302;28;20046;-63
2022/11/24 02:54:32;;;;;;;8.50;6.82;;;1.10;99.90;;;;;;5005333;28;20417;-64
2022/11/24 02:57:00;;;;;;;8.45;6.28;;;1.10;99.90;;;;;;5007812;28;20683;-65
2022/11/24 02:59:27;;;;;;;9.57;7.38;;;1.00;99.90;;;;;;5006664;28;20076;-64
2022/11/24 03:01:54;;;;;;;9.15;7.70;;;1.10;99.90;;;;;;5006556;28;20050;-63
2022/11/24 03:04:21;;;;;;;8.18;7.00;;;1.00;99.90;;;;;;5007519;28;20104;-68
2022/11/24 03:06:48;;;;;;;10.80;8.88;;;1.00;99.90;;;;;;5006634;28;20049;-63
2022/11/24 03:09:15;;;;;;;8.65;7.60;;;1.00;99.90;;;;;;5009221;28;20099;-63
2022/11/24 03:11:42;;;;;;;11.15;7.65;;;1.00;99.90;;;;;;5002152;28;20099;-67
2022/11/24 03:14:09;;;;;;;10.23;7.90;;;1.00;99.90;;;;;;5006406;28;20104;-65
2022/11/24 03:16:36;;;;;;;12.13;8.40;;;1.00;99.90;;;;;;5009119;28;20104;-63
2022/11/24 03:19:03;;;;;;;10.75;8.70;;;1.00;99.90;;;;;;5006903;28;20410;-67
2022/11/24 03:21:30;;;;;;;12.52;10.43;;;1.00;99.90;;;;;;4997972;28;20045;-65
2022/11/24 03:23:57;;;;;;;9.52;7.13;;;1.00;99.90;;;;;;5005784;28;20049;-63
2022/11/24 03:26:24;;;;;;;9.57;8.48;;;1.00;99.90;;;;;;5002820;28;20057;-66
2022/11/24 03:28:56;;;;;;;9.65;7.75;;;1.00;99.90;;;;;;4997139;28;20184;-65
2022/11/24 03:31:23;;;;;;;9.63;7.57;;;1.00;99.90;;;;;;5005545;28;20072;-63
2022/11/24 03:33:50;;;;;;;12.80;8.70;;;1.00;99.90;;;;;;4998911;28;20046;-68
2022/11/24 03:36:17;;;;;;;12.20;8.57;;;1.00;99.90;;;;;;5002988;28;20061;-65
2022/11/24 03:38:45;;;;;;;12.65;9.23;;;1.00;99.90;;;;;;5002082;28;20084;-65
2022/11/24 03:41:12;;;;;;;12.38;7.95;;;1.00;99.90;;;;;;5006078;28;20143;-68
2022/11/24 03:43:39;;;;;;;11.20;8.93;;;1.00;99.90;;;;;;4999160;28;20089;-66
2022/11/24 03:46:10;;;;;;;11.23;8.57;;;1.00;99.90;;;;;;5009715;28;20053;-64
2022/11/24 03:48:38;;;;;;;14.20;10.40;;;1.00;99.90;;;;;;5010262;28;20046;-64
2022/11/24 03:51:05;;;;;;;13.77;10.30;;;1.00;99.90;;;;;;5006713;28;20038;-63
2022/11/24 03:53:32;;;;;;;12.88;10.23;;;1.00;99.90;;;;;;5003796;28;20045;-66
2022/11/24 03:56:00;;;;;;;12.18;9.55;;;1.00;99.90;;;;;;5003990;28;20077;-63
2022/11/24 03:58:28;;;;;;;10.13;8.15;;;1.00;99.90;;;;;;5005892;28;20052;-68
2022/11/24 04:00:55;;;;;;;11.68;8.70;;;1.00;99.90;;;;;;5003681;28;20042;-64
2022/11/24 04:03:23;;;;;;;11.52;8.50;;;1.00;99.90;;;;;;5009710;28;20057;-65
2022/11/24 04:05:50;;;;;;;10.32;8.07;;;1.00;99.90;;;;;;5004372;28;20371;-65
2022/11/24 04:08:17;;;;;;;12.05;9.32;;;1.00;99.90;;;;;;5005368;28;20115;-63
2022/11/24 04:10:49;;;;;;;10.77;8.60;;;1.00;99.90;;;;;;5006504;28;20501;-64
2022/11/24 04:13:18;;;;;;;14.73;10.35;;;1.00;99.90;;;;;;5007934;28;20046;-63
2022/11/24 04:15:45;;;;;;;9.60;8.50;;;1.00;99.90;;;;;;4999518;28;20046;-63
2022/11/24 04:18:12;;;;;;;11.60;8.90;;;1.00;99.90;;;;;;5007605;28;20260;-65
2022/11/24 04:20:40;;;;;;;11.00;8.07;;;1.00;99.90;;;;;;5006476;28;20046;-63
2022/11/24 04:23:08;;;;;;;10.07;7.22;;;1.00;99.90;;;;;;5004061;28;20053;-67
2022/11/24 04:25:35;;;;;;;11.05;8.00;;;1.00;99.90;;;;;;5002831;28;20108;-63
2022/11/24 04:28:03;;;;;;;9.70;7.78;;;1.00;99.90;;;;;;5006866;28;20067;-64
2022/11/24 04:30:30;;;;;;;13.23;9.38;;;1.00;99.90;;;;;;5004968;28;20050;-67
2022/11/24 04:32:57;;;;;;;10.27;8.55;;;1.00;99.90;;;;;;5002767;28;20046;-63
2022/11/24 04:35:24;;;;;;;11.02;9.23;;;1.00;99.90;;;;;;5004135;28;20114;-65
2022/11/24 04:37:51;;;;;;;9.70;7.93;;;1.00;99.90;;;;;;5007224;28;20045;-62
2022/11/24 04:40:19;;;;;;;13.07;10.80;;;1.00;99.90;;;;;;4999370;28;20740;-65
2022/11/24 04:42:54;;;;;;;12.50;9.63;;;1.00;99.90;;;;;;5003478;28;20050;-64
2022/11/24 04:45:22;;;;;;;13.27;9.98;;;1.00;99.90;;;;;;5001991;28;20050;-65
2022/11/24 04:47:49;;;;;;;13.88;8.63;;;1.00;99.90;;;;;;5001241;28;20076;-64
2022/11/24 04:50:16;;;;;;;14.10;9.73;;;1.00;99.90;;;;;;5001863;28;20088;-63
2022/11/24 04:52:43;;;;;;;13.07;10.30;;;1.00;99.90;;;;;;4998919;28;20046;-66
2022/11/24 04:55:10;;;;;;;11.32;7.95;;;1.00;99.90;;;;;;5008455;28;20053;-63
2022/11/24 04:57:37;;;;;;;14.55;10.77;;;1.00;99.90;;;;;;5000208;28;20050;-64
2022/11/24 05:00:06;;;;;;;12.13;8.57;;;1.00;99.90;;;;;;5003995;28;20686;-65
2022/11/24 05:02:33;;;;;;;13.70;9.43;;;1.00;99.90;;;;;;5000147;28;20144;-65
2022/11/24 05:05:00;;;;;;;11.70;9.65;;;1.00;99.90;;;;;;5003906;28;20496;-64
2022/11/24 05:07:27;;;;;;;12.20;9.15;;;1.00;99.90;;;;;;5006321;28;20045;-63
2022/11/24 05:12:40;;;;;;;12.05;8.75;;;1.00;99.90;;;;;;5003845;28;20046;-65
2022/11/24 05:15:07;;;;;;;10.38;8.02;;;1.00;99.90;;;;;;5006206;28;20048;-67
2022/11/24 05:17:37;;;;;;;12.27;8.52;;;1.00;99.90;;;;;;5005364;28;20069;-65
2022/11/24 05:20:05;;;;;;;;;;;1.00;99.90;;;;;;5001120;28;20050;-65
2022/11/24 05:22:32;;;;;;;12.43;9.50;;;1.00;99.90;;;;;;5010081;28;20015;-65
2022/11/24 05:24:59;;;;;;;15.00;9.88;;;1.00;99.90;;;;;;5010152;28;20092;-63
2022/11/24 05:27:26;;;;;;;12.27;9.40;;;1.00;99.90;;;;;;4999041;28;20077;-63
2022/11/24 05:29:52;;;;;;;12.48;9.48;;;1.00;99.90;;;;;;5005149;28;20046;-64
2022/11/24 05:32:19;;;;;;;11.68;9.32;;;1.00;99.90;;;;;;5009345;28;20774;-65
2022/11/24 05:34:46;;;;;;;12.15;8.77;;;1.00;99.90;;;;;;4992390;28;20147;-64
2022/11/24 05:37:13;;;;;;;14.45;10.18;;;1.00;99.90;;;;;;5009145;28;20049;-62
2022/11/24 05:39:40;;;;;;;13.88;10.27;;;1.00;99.90;;;;;;5001280;28;20499;-64
2022/11/24 05:45:19;;;;;;;17.58;12.32;;;1.00;99.90;;;;;;4971640;28;20057;-68
2022/11/24 05:47:46;;;;;;;15.18;10.52;;;1.00;99.90;;;;;;4999262;28;20172;-62
2022/11/24 05:50:15;;;;;;;11.98;10.15;;;1.00;99.90;;;;;;5001715;28;20256;-67
2022/11/24 05:52:42;;;;;;;12.52;10.50;;;1.00;99.90;;;;;;5006933;28;20181;-68
2022/11/24 05:55:10;;;;;;;13.77;10.45;;;1.00;99.90;;;;;;5009518;28;20050;-64
2022/11/24 05:57:37;;;;;;;13.20;10.00;;;1.00;99.90;;;;;;4990845;28;20053;-63
2022/11/24 06:00:06;;;;;;;15.48;10.45;;;1.00;99.90;;;;;;5010606;28;20061;-66
2022/11/24 06:02:38;;;;;;;15.73;10.85;;;1.10;99.90;;;;;;5002864;28;20054;-64
2022/11/24 06:05:05;;;;;;;14.05;11.00;;;1.10;99.90;;;;;;5005618;28;20069;-63
2022/11/24 06:07:32;;;;;;;11.68;9.80;;;1.10;99.90;;;;;;4996883;28;20057;-68
2022/11/24 06:09:59;;;;;;;14.02;10.65;;;1.00;99.90;;;;;;5004490;28;20080;-65
2022/11/24 06:12:26;;;;;;;14.55;11.18;;;1.10;99.90;;;;;;5000309;28;20054;-67
2022/11/24 06:14:53;;;;;;;13.88;9.70;;;1.00;99.90;;;;;;5003612;28;20140;-67
2022/11/24 06:17:20;;;;;;;13.20;9.43;;;1.00;99.90;;;;;;5001577;28;20148;-64
2022/11/24 06:19:48;;;;;;;15.50;10.13;;;1.00;99.90;;;;;;5001394;28;20041;-66
2022/11/24 06:22:17;;;;;;;14.93;10.60;;;1.00;99.90;;;;;;5004310;28;20062;-68
2022/11/24 06:24:45;;;;;;;13.50;10.18;;;1.00;99.90;;;;;;5002404;28;20046;-68
2022/11/24 06:27:13;;;;;;;13.48;9.23;;;1.00;99.90;;;;;;5007785;28;20930;-64
2022/11/24 06:29:40;;;;;;;14.23;10.10;;;1.00;99.90;;;;;;5005463;28;20042;-64
2022/11/24 06:32:07;;;;;;;12.40;8.75;;;1.10;99.90;;;;;;5006073;28;20152;-67
2022/11/24 06:34:34;;;;;;;15.18;10.35;;;1.00;99.90;;;;;;5005553;28;20052;-66
2022/11/24 06:37:01;;;;;;;17.58;10.35;;;1.00;99.90;;;;;;5003347;28;20049;-64
2022/11/24 06:39:28;;;;;;;15.75;11.18;;;1.10;99.90;;;;;;5003013;28;20046;-67
2022/11/24 06:41:55;;;;;;;14.00;9.75;;;1.10;99.90;;;;;;5000478;28;20148;-66
2022/11/24 06:44:22;;;;;;;13.98;9.85;;;1.10;99.90;;;;;;5008032;28;20548;-63
2022/11/24 06:46:49;;;;;;;12.90;9.35;;;1.00;99.90;;;;;;5006977;28;20578;-65
2022/11/24 06:49:16;;;;;;;12.85;9.20;;;1.00;99.90;;;;;;5006785;28;20738;-65
2022/11/24 06:51:43;;;;;;;13.18;8.52;;;1.10;99.90;;;;;;4999171;28;20217;-65
2022/11/24 06:54:15;;;;;;;16.80;11.23;;;1.10;99.90;;;;;;5004035;28;20053;-70
2022/11/24 06:56:42;;;;;;;12.75;10.30;;;1.10;99.90;;;;;;5001570;28;20153;-64
2022/11/24 06:59:16;;;;;;;12.63;9.05;;;1.10;99.90;;;;;;5001442;28;20104;-65
2022/11/24 07:01:43;;;;;;;12.65;10.13;;;1.10;99.90;;;;;;5001551;28;20056;-65
2022/11/24 07:04:10;;;;;;;14.27;9.90;;;1.10;99.90;;;;;;5006370;28;20499;-63
2022/11/24 07:06:39;;;;;;;11.77;8.93;;;1.10;99.90;;;;;;5004449;28;20103;-64
2022/11/24 07:09:11;;;;;;;11.10;9.05;;;1.10;99.90;;;;;;5004815;28;20045;-64
2022/11/24 07:11:38;;;;;;;13.32;9.82;;;1.10;99.90;;;;;;4997937;28;20061;-64
2022/11/24 07:14:05;;;;;;;11.90;8.52;;;1.10;99.90;;;;;;5006410;28;20411;-64
2022/11/24 07:16:33;;;;;;;10.57;7.72;;;1.10;99.90;;;;;;5003989;28;20060;-69
2022/11/24 07:19:00;;;;;;;14.20;9.65;;;1.10;99.90;;;;;;5006248;28;20050;-65
2022/11/24 07:21:29;;;;;;;11.23;7.88;;;1.10;99.90;;;;;;5004847;28;20060;-66
2022/11/24 07:23:57;;;;;;;10.30;7.75;;;1.10;99.90;;;;;;5003709;28;20102;-63
2022/11/24 07:26:24;;;;;;;12.18;8.75;;;1.10;99.90;;;;;;4998727;28;20102;-63
2022/11/24 07:28:51;;;;;;;9.55;7.18;;;1.10;99.90;;;;;;5006659;28;20056;-63
2022/11/24 07:31:20;;;;;;;11.85;8.93;;;1.10;99.90;;;;;;5007960;28;20191;-63
2022/11/24 07:33:52;;;;;;;12.87;9.67;;;1.20;99.90;;;;;;5002516;28;20141;-64
2022/11/24 07:36:19;;;;;;;10.80;8.88;;;1.20;99.90;;;;;;5006262;28;20398;-65
2022/11/24 07:38:46;;;;;;;10.85;8.55;;;1.20;99.90;;;;;;5007828;28;20058;-67
2022/11/24 07:41:14;;;;;;;10.40;7.68;;;1.20;99.90;;;;;;4999409;28;20042;-64
2022/11/24 07:43:41;;;;;;;11.98;8.38;;;1.20;99.90;;;;;;4999739;28;20161;-69
2022/11/24 07:46:12;;;;;;;11.93;8.57;;;1.20;99.90;;;;;;5009732;28;20052;-68
2022/11/24 07:48:39;;;;;;;11.48;8.82;;;1.30;99.90;;;;;;5000502;28;20050;-65
2022/11/24 07:51:06;;;;;;;10.25;8.07;;;1.30;99.90;;;;;;5003452;28;20050;-65
2022/11/24 07:53:35;;;;;;;10.93;7.72;;;1.30;99.90;;;;;;5004835;28;20140;-63
2022/11/24 07:56:05;;;;;;;12.38;9.40;;;1.40;99.90;;;;;;4987916;28;20160;-64
2022/11/24 07:58:34;;;;;;;11.07;8.63;;;1.40;99.90;;;;;;4999705;28;20421;-64
2022/11/24 08:01:15;;;;;;;10.73;8.40;;;1.40;99.90;;;;;;5004290;28;20469;-64
2022/11/24 08:03:43;;;;;;;11.45;8.13;;;1.40;99.90;;;;;;5001625;28;20585;-66
2022/11/24 08:06:12;;;;;;;11.25;7.90;;;1.40;99.90;;;;;;5007677;28;20054;-70
2022/11/24 08:08:53;;;;;;;12.60;9.38;;;1.50;99.90;;;;;;4997879;28;20196;-63
2022/11/24 08:11:21;;;;;;;12.57;8.25;;;1.50;99.90;;;;;;5006982;28;20153;-69
2022/11/24 08:13:47;;;;;;;10.52;7.78;;;1.50;99.90;;;;;;4999592;28;20045;-64
2022/11/24 08:16:17;;;;;;;9.98;7.60;;;1.50;99.90;;;;;;5004931;28;20771;-66
2022/11/24 08:18:49;;;;;;;10.25;8.10;;;1.60;99.90;;;;;;5003039;28;20045;-66
2022/11/24 08:21:16;;;;;;;7.60;6.90;;;1.60;99.90;;;;;;5007970;28;20129;-65
2022/11/24 08:23:43;;;;;;;8.35;7.22;;;1.60;99.90;;;;;;5001088;28;20803;-64
2022/11/24 08:26:15;;;;;;;10.35;8.50;;;1.60;99.90;;;;;;5005454;28;20050;-63
2022/11/24 08:28:43;;;;;;;10.65;8.13;;;1.70;99.90;;;;;;5006568;28;20057;-66
2022/11/24 08:31:13;;;;;;;10.55;8.85;;;1.70;99.90;;;;;;5000376;28;20046;-64
2022/11/24 08:33:41;;;;;;;17.70;9.38;;;1.70;99.90;;;;;;5003282;28;20448;-64
2022/11/24 08:36:13;;;;;;;10.57;7.85;;;1.70;99.90;;;;;;5005504;28;20444;-64
2022/11/24 08:38:41;;;;;;;9.45;8.27;;;1.60;99.90;;;;;;5007000;28;20125;-69
2022/11/24 08:41:12;;;;;;;9.15;7.25;;;1.60;99.90;;;;;;5003391;28;20129;-65
2022/11/24 08:43:39;;;;;;;12.93;8.38;;;1.60;99.90;;;;;;4999895;28;20120;-65
2022/11/24 08:46:09;;;;;;;14.50;9.40;;;1.60;99.90;;;;;;4999826;28;20050;-66
2022/11/24 08:48:36;;;;;;;10.82;7.78;;;1.60;99.90;;;;;;5005523;28;20067;-63
2022/11/24 08:51:12;;;;;;;9.93;8.00;;;1.60;99.90;;;;;;5004924;28;20125;-64
2022/11/24 08:53:40;;;;;;;12.38;7.78;;;1.60;99.90;;;;;;5005386;28;20045;-65
2022/11/24 08:56:08;;;;;;;9.18;8.15;;;1.60;99.90;;;;;;5005706;28;20128;-63
2022/11/24 08:58:36;;;;;;;12.02;8.57;;;1.60;99.90;;;;;;5010305;28;20562;-66
2022/11/24 09:01:15;;;;;;;11.48;7.63;;;1.60;99.90;;;;;;5008899;28;20054;-64
2022/11/24 09:03:43;;;;;;;10.43;7.75;;;1.60;99.90;;;;;;5004012;28;20416;-63
2022/11/24 09:06:18;;;;;;;8.68;6.85;;;1.60;99.90;;;;;;5006849;28;20060;-64
2022/11/24 09:08:44;;;;;;;9.73;7.05;;;1.60;99.90;;;;;;5011963;28;20084;-63
2022/11/24 09:11:13;;;;;;;10.27;7.50;;;1.70;99.90;;;;;;5008040;28;20049;-65
2022/11/24 09:13:40;;;;;;;9.40;7.10;;;1.70;99.90;;;;;;5007522;28;20046;-64
2022/11/24 09:16:16;;;;;;;9.63;7.90;;;1.70;99.90;;;;;;5009939;28;20142;-67
2022/11/24 09:18:43;;;;;;;10.90;7.78;;;1.60;99.90;;;;;;5002878;28;20121;-63
2022/11/24 09:21:12;;;;;;;10.60;8.10;;;1.70;99.90;;;;;;5007116;28;20142;-65
2022/11/24 09:23:39;;;;;;;11.65;8.18;;;1.70;99.90;;;;;;5007779;28;20740;-67
2022/11/24 09:26:18;;;;;;;11.15;7.90;;;1.70;99.90;;;;;;5006804;28;20046;-66
2022/11/24 09:28:45;;;;;;;8.82;7.82;;;1.70;99.90;;;;;;5007104;28;20049;-64
2022/11/24 09:31:15;;;;;;;11.68;8.43;;;1.70;99.90;;;;;;5004219;28;20050;-66
2022/11/24 09:33:43;;;;;;;11.90;8.13;;;1.80;99.90;;;;;;5004936;28;20057;-64
2022/11/24 09:36:10;;;;;;;10.73;8.35;;;1.80;99.90;;;;;;5008413;28;20140;-64
2022/11/24 09:38:37;;;;;;;9.93;7.82;;;1.80;99.90;;;;;;5007210;28;20049;-68
2022/11/24 09:41:16;;;;;;;16.40;8.77;;;1.80;99.90;;;;;;5007806;28;20078;-63
2022/11/24 09:44:01;;;;;;;10.18;7.07;;;1.80;99.90;;;;;;5005279;28;20133;-66
2022/11/24 09:46:40;;;;;;;10.60;7.80;;;1.80;99.90;;;;;;5006210;28;20132;-66
2022/11/24 09:49:16;;;;;;;8.10;7.28;;;1.80;99.90;;;;;;5010225;28;20136;-69
2022/11/24 09:51:51;;;;;;;12.60;8.95;;;1.80;99.90;;;;;;5004083;28;20143;-66
2022/11/24 09:54:25;;;;;;;10.60;7.97;;;1.80;99.90;;;;;;5007115;28;20052;-64
2022/11/24 09:56:52;;;;;;;9.82;7.78;;;1.80;99.90;;;;;;5005551;28;20743;-67
2022/11/24 09:59:23;;;;;;;9.82;8.00;;;1.80;99.90;;;;;;5011283;28;20054;-67
2022/11/24 10:01:51;;;;;;;11.93;10.20;;;1.80;99.90;;;;;;5005425;28;21061;-65
2022/11/24 10:04:23;;;;;;;12.43;8.65;;;1.80;99.90;;;;;;5006106;28;20761;-64
2022/11/24 10:06:58;;;;;;;9.48;7.40;;;1.80;99.90;;;;;;5001685;28;20410;-63
2022/11/24 10:09:40;;;;;;;8.38;7.15;;;1.80;99.90;;;;;;5010101;28;20053;-64
2022/11/24 10:12:34;;;;;;;13.35;8.27;;;1.90;99.90;;;;;;5007264;28;20050;-63
2022/11/24 10:15:21;;;;;;;10.18;7.35;;;1.90;99.90;;;;;;4997846;28;20057;-63
2022/11/24 10:18:00;;;;;;;9.57;6.82;;;1.90;99.90;;;;;;4996037;28;20152;-66
2022/11/24 10:20:40;;;;;;;8.98;7.28;;;1.90;99.90;;;;;;5003604;28;20057;-64
2022/11/24 10:23:07;;;;;;;;;;;1.90;99.90;;;;;;5001917;28;20054;-64
2022/11/24 10:26:06;;;;;;;9.32;7.18;;;1.90;99.90;;;;;;5004152;28;20023;-67
2022/11/24 10:28:59;;;;;;;9.13;6.80;;;1.90;99.90;;;;;;5004543;28;20057;-66
2022/11/24 10:31:39;;;;;;;8.63;7.45;;;1.90;99.90;;;;;;5002501;28;20050;-66
2022/11/24 10:34:13;;;;;;;8.23;6.77;;;1.90;99.90;;;;;;5001887;28;20049;-64
2022/11/24 10:37:15;;;;;;;9.52;6.82;;;1.90;99.90;;;;;;4999172;28;20753;-66
2022/11/24 10:40:10;;;;;;;7.20;5.35;;;2.00;99.90;;;;;;4975900;28;20084;-63
2022/11/24 10:42:57;;;;;;;8.63;6.75;;;1.90;99.90;;;;;;5005310;28;20060;-66
2022/11/24 10:45:26;;;;;;;8.10;6.88;;;1.90;99.90;;;;;;5006557;28;20072;-63
2022/11/24 10:47:53;;;;;;;12.23;7.43;;;2.00;99.90;;;;;;5005365;28;20061;-65
2022/11/24 10:50:25;;;;;;;8.88;6.40;;;2.00;99.90;;;;;;4986382;28;20061;-63
2022/11/24 10:53:01;;;;;;;8.82;6.13;;;1.90;99.90;;;;;;5002157;28;20136;-64
2022/11/24 10:55:53;;;;;;;8.55;6.88;;;2.00;99.90;;;;;;5003299;28;20100;-63
2022/11/24 10:58:28;;;;;;;8.68;6.18;;;1.90;99.90;;;;;;5006199;28;20050;-67
2022/11/24 11:01:12;;;;;;;8.07;5.65;;;1.90;99.90;;;;;;4999868;28;20057;-63
2022/11/24 11:03:54;;;;;;;8.80;6.28;;;1.90;99.90;;;;;;4998576;28;20057;-66
2022/11/24 11:06:23;;;;;;;11.90;8.50;;;1.90;99.90;;;;;;5003837;28;20574;-68
2022/11/24 11:09:16;;;;;;;10.68;7.32;;;1.90;99.90;;;;;;5007484;28;20041;-67
2022/11/24 11:11:45;;;;;;;8.32;6.13;;;1.90;99.90;;;;;;5001100;28;20116;-65
2022/11/24 11:14:27;;;;;;;8.77;6.53;;;1.90;99.90;;;;;;5001797;28;20093;-64
2022/11/24 11:16:58;;;;;;;8.90;6.38;;;2.00;99.90;;;;;;5008226;28;20083;-64
2022/11/24 11:19:46;;;;;;;8.52;6.28;;;1.90;99.90;;;;;;5001066;28;20147;-64
2022/11/24 11:22:29;;;;;;;10.40;7.78;;;1.90;99.90;;;;;;4999103;28;20061;-63
2022/11/24 11:25:09;;;;;;;9.20;6.15;;;1.90;99.90;;;;;;4999927;28;20137;-63
2022/11/24 11:27:38;;;;;;;9.38;6.97;;;1.90;99.90;;;;;;4997361;28;20415;-63
2022/11/24 11:30:15;;;;;;;9.43;6.70;;;1.90;99.90;;;;;;5000736;28;20528;-67
2022/11/24 11:33:01;;;;;;;9.23;7.18;;;1.90;99.90;;;;;;5000510;28;20065;-65
2022/11/24 11:35:49;;;;;;;9.75;7.05;;;1.90;99.90;;;;;;4997925;28;20049;-65
2022/11/24 11:38:17;;;;;;;10.23;7.53;;;2.00;99.90;;;;;;5002979;28;20488;-64
2022/11/24 11:40:47;;;;;;;13.75;8.73;;;1.90;99.90;;;;;;5002045;28;20830;-67
2022/11/24 11:43:30;;;;;;;8.50;7.13;;;1.90;99.90;;;;;;4999552;28;20135;-63
2022/11/24 11:46:09;;;;;;;10.95;7.85;;;1.90;99.90;;;;;;4998550;28;20046;-66
2022/11/24 11:48:42;;;;;;;10.55;8.15;;;1.90;99.90;;;;;;4998940;28;20112;-66
2022/11/24 11:51:15;;;;;;;10.10;7.78;;;1.90;99.90;;;;;;5002658;28;20076;-67
2022/11/24 11:54:05;;;;;;;9.25;7.00;;;1.90;99.90;;;;;;4934872;28;20105;-65
2022/11/24 11:56:53;;;;;;;11.30;8.60;;;1.90;99.90;;;;;;4935020;28;20051;-64
2022/11/24 11:59:51;;;;;;;11.30;8.18;;;2.00;99.90;;;;;;4937986;28;20782;-66
2022/11/24 12:03:10;;;;;;;10.57;7.55;;;1.90;99.90;;;;;;4942608;28;20456;-63
2022/11/24 12:06:04;;;;;;;9.48;6.88;;;1.90;99.90;;;;;;4888413;28;20047;-62
2022/11/24 12:08:48;;;;;;;8.27;7.10;;;1.90;99.90;;;;;;4947771;28;20170;-64
2022/11/24 12:12:13;;;;;;;9.65;7.38;;;1.90;99.90;;;;;;4954598;28;20050;-64
2022/11/24 12:15:13;;;;;;;10.50;7.80;;;1.90;99.90;;;;;;5003774;28;20506;-64
2022/11/24 12:18:01;;;;;;;11.70;7.72;;;2.00;99.90;;;;;;5002828;28;20415;-62
2022/11/24 12:20:52;;;;;;;13.18;9.05;;;1.90;99.90;;;;;;4995829;28;20057;-64
2022/11/24 12:23:28;;;;;;;10.45;7.68;;;1.90;99.90;;;;;;5006574;28;20057;-64
2022/11/24 12:26:16;;;;;;;7.80;6.25;;;1.90;99.90;;;;;;4998522;28;20483;-64
2022/11/24 12:29:25;;;;;;;14.52;9.68;;;1.90;99.90;;;;;;4996995;28;20065;-65
2022/11/24 12:32:10;;;;;;;13.73;9.30;;;1.90;99.90;;;;;;4964281;28;20054;-68
2022/11/24 12:34:56;;;;;;;16.02;9.88;;;1.90;99.90;;;;;;5004982;28;21703;-62
2022/11/24 12:37:55;;;;;;;11.30;7.25;;;1.90;99.90;;;;;;5004251;28;20126;-64
2022/11/24 12:41:04;;;;;;;10.35;8.38;;;1.90;99.90;;;;;;5002759;28;20056;-64
2022/11/24 12:43:54;;;;;;;7.00;5.78;;;2.00;99.90;;;;;;5006185;28;20496;-63
2022/11/24 12:46:39;;;;;;;8.95;7.22;;;2.00;99.90;;;;;;5010729;28;20427;-65
2022/11/24 12:49:28;;;;;;;8.15;7.20;;;2.00;99.90;;;;;;5009897;28;20443;-65
2022/11/24 12:52:01;;;;;;;8.65;7.03;;;1.90;99.90;;;;;;5008722;28;20056;-64
2022/11/24 12:54:37;;;;;;;9.68;7.90;;;1.90;99.90;;;;;;5008071;28;20050;-64
2022/11/24 12:57:17;;;;;;;9.13;7.10;;;2.00;99.90;;;;;;5009366;28;20052;-64
2022/11/24 12:59:55;;;;;;;9.75;8.10;;;1.90;99.90;;;;;;5004845;28;20089;-65
2022/11/24 13:02:36;;;;;;;10.90;7.18;;;2.00;99.90;;;;;;4998853;28;20052;-64
2022/11/24 13:05:15;;;;;;;9.32;6.85;;;1.90;99.90;;;;;;5004126;28;20141;-64
2022/11/24 13:07:45;;;;;;;8.93;7.07;;;1.90;99.90;;;;;;5006983;28;20053;-64
2022/11/24 13:10:24;;;;;;;9.50;7.68;;;1.90;99.90;;;;;;5008391;28;20519;-64
2022/11/24 13:13:13;;;;;;;11.20;7.32;;;1.90;99.90;;;;;;5007440;28;20490;-64
2022/11/24 13:15:52;;;;;;;9.10;7.78;;;1.90;99.90;;;;;;5005693;28;20068;-64
2022/11/24 13:18:52;;;;;;;9.27;7.40;;;1.90;99.90;;;;;;5008087;28;20048;-65
2022/11/24 13:21:31;;;;;;;10.77;7.72;;;1.90;99.90;;;;;;5009502;28;20054;-63
2022/11/24 13:23:59;;;;;;;9.10;6.65;;;1.90;99.90;;;;;;5003628;28;20041;-63